createdAt,value
2018-02-21T00:01:22.441Z,80.20
2018-02-21T00:03:49.897Z,79.40
2018-02-21T00:06:17.358Z,79.40
2018-02-21T00:08:44.824Z,79.70
2018-02-21T00:11:12.286Z,80.30
2018-02-21T00:13:39.742Z,79.30
2018-02-21T00:16:07.204Z,79.70
2018-02-21T00:18:34.652Z,79.80
2018-02-21T00:21:02.112Z,78.40
2018-02-21T00:23:30.322Z,81.20
2018-02-21T00:25:57.796Z,80.50
2018-02-21T00:28:25.252Z,81.80
2018-02-21T00:30:52.708Z,82.40
2018-02-21T00:33:20.161Z,82.30
2018-02-21T00:35:47.640Z,81.90
2018-02-21T00:38:15.077Z,81.50
2018-02-21T00:40:42.543Z,80.40
2018-02-21T00:43:10.005Z,79.10
2018-02-21T00:45:37.468Z,78.90
2018-02-21T00:48:04.946Z,78.90
2018-02-21T00:50:32.412Z,78.70
2018-02-21T00:52:59.898Z,78.30
2018-02-21T00:55:28.114Z,78.40
2018-02-21T00:57:56.338Z,79.50
2018-02-21T01:00:23.804Z,79.50
2018-02-21T01:02:51.263Z,79.70
2018-02-21T01:05:18.729Z,79.70
2018-02-21T01:07:46.188Z,79.70
2018-02-21T01:10:13.648Z,79.00
2018-02-21T01:12:41.112Z,79.10
2018-02-21T01:15:08.565Z,79.60
2018-02-21T01:17:36.016Z,79.50
2018-02-21T01:20:03.471Z,79.90
2018-02-21T01:22:31.042Z,80.00
2018-02-21T01:24:58.486Z,80.00
2018-02-21T01:27:26.700Z,80.10
2018-02-21T01:29:54.145Z,80.10
2018-02-21T01:32:21.608Z,80.20
2018-02-21T01:34:49.071Z,80.30
2018-02-21T01:37:16.548Z,80.90
2018-02-21T01:39:44.029Z,80.70
2018-02-21T01:42:11.490Z,80.60
2018-02-21T01:44:38.946Z,80.60
2018-02-21T01:47:06.415Z,80.80
2018-02-21T01:49:33.858Z,79.30
2018-02-21T01:52:01.311Z,80.00
2018-02-21T01:54:28.770Z,80.60
2018-02-21T01:56:56.216Z,80.10
2018-02-21T01:59:23.668Z,80.10
2018-02-21T02:01:51.891Z,81.90
2018-02-21T02:04:19.333Z,81.80
2018-02-21T02:06:46.805Z,81.90
2018-02-21T02:09:14.276Z,81.00
2018-02-21T02:11:41.750Z,80.80
2018-02-21T02:14:09.193Z,81.40
2018-02-21T02:16:36.672Z,81.40
2018-02-21T02:19:04.129Z,80.90
2018-02-21T02:21:31.588Z,81.00
2018-02-21T02:23:59.059Z,80.50
2018-02-21T02:26:26.531Z,80.90
2018-02-21T02:28:53.977Z,80.10
2018-02-21T02:31:21.436Z,80.20
2018-02-21T02:33:48.885Z,81.60
2018-02-21T02:36:16.350Z,80.60
2018-02-21T02:41:42.565Z,80.40
2018-02-21T02:44:10.785Z,80.00
2018-02-21T02:46:38.273Z,80.00
2018-02-21T02:49:05.731Z,80.30
2018-02-21T02:51:33.201Z,80.40
2018-02-21T02:54:00.669Z,80.50
2018-02-21T02:56:28.124Z,81.30
2018-02-21T02:58:55.573Z,80.50
2018-02-21T03:01:23.038Z,80.40
2018-02-21T03:03:50.495Z,80.30
2018-02-21T03:06:17.954Z,80.30
2018-02-21T03:08:45.409Z,80.50
2018-02-21T03:11:12.878Z,80.20
2018-02-21T03:13:40.386Z,80.20
2018-02-21T03:16:07.808Z,80.40
2018-02-21T03:18:35.264Z,80.80
2018-02-21T03:21:02.720Z,81.10
2018-02-21T03:23:30.188Z,80.90
2018-02-21T03:25:57.653Z,80.90
2018-02-21T03:28:25.113Z,80.90
2018-02-21T03:30:52.569Z,81.20
2018-02-21T03:33:20.028Z,81.00
2018-02-21T03:35:47.486Z,81.60
2018-02-21T03:38:14.953Z,81.50
2018-02-21T03:40:42.416Z,81.90
2018-02-21T03:43:09.884Z,81.60
2018-02-21T03:45:37.334Z,81.40
2018-02-21T03:48:04.798Z,82.10
2018-02-21T03:50:32.261Z,82.30
2018-02-21T03:52:59.731Z,81.80
2018-02-21T03:55:27.190Z,81.80
2018-02-21T03:57:54.657Z,82.80
2018-02-21T04:00:22.120Z,81.70
2018-02-21T04:02:49.591Z,81.90
2018-02-21T04:05:17.032Z,81.90
2018-02-21T04:07:44.498Z,81.60
2018-02-21T04:10:12.716Z,81.70
2018-02-21T04:12:40.940Z,81.60
2018-02-21T04:15:08.388Z,81.50
2018-02-21T04:17:35.860Z,82.20
2018-02-21T04:20:03.311Z,82.90
2018-02-21T04:22:30.772Z,82.90
2018-02-21T04:24:58.237Z,83.40
2018-02-21T04:27:25.698Z,83.30
2018-02-21T04:29:53.153Z,83.10
2018-02-21T04:32:20.625Z,83.30
2018-02-21T04:34:48.081Z,83.90
2018-02-21T04:37:15.544Z,83.40
2018-02-21T04:39:43.006Z,83.10
2018-02-21T04:42:10.472Z,83.00
2018-02-21T04:44:37.939Z,83.40
2018-02-21T04:47:05.396Z,83.40
2018-02-21T04:49:32.861Z,83.70
2018-02-21T04:52:00.321Z,83.50
2018-02-21T04:54:31.336Z,83.20
2018-02-21T05:00:01.898Z,83.40
2018-02-21T05:02:29.362Z,82.70
2018-02-21T05:04:56.824Z,83.10
2018-02-21T05:07:24.298Z,83.20
2018-02-21T05:09:51.771Z,83.20
2018-02-21T05:12:19.222Z,82.70
2018-02-21T05:14:46.681Z,82.80
2018-02-21T05:17:14.136Z,82.60
2018-02-21T05:19:41.609Z,82.30
2018-02-21T05:22:09.057Z,82.30
2018-02-21T05:24:36.521Z,81.90
2018-02-21T05:27:03.980Z,82.20
2018-02-21T05:29:31.448Z,82.50
2018-02-21T05:31:58.913Z,82.90
2018-02-21T05:34:26.377Z,83.10
2018-02-21T05:36:53.833Z,83.30
2018-02-21T05:39:21.294Z,83.70
2018-02-21T05:41:48.753Z,82.60
2018-02-21T05:44:16.226Z,82.60
2018-02-21T05:46:43.684Z,83.00
2018-02-21T05:49:11.145Z,83.00
2018-02-21T05:51:38.604Z,83.10
2018-02-21T05:54:06.076Z,83.10
2018-02-21T05:56:33.531Z,82.10
2018-02-21T05:59:00.991Z,82.00
2018-02-21T06:01:28.434Z,81.70
2018-02-21T06:03:56.680Z,81.70
2018-02-21T06:06:24.135Z,81.70
2018-02-21T06:08:51.597Z,81.30
2018-02-21T06:11:19.082Z,81.20
2018-02-21T06:13:46.525Z,81.60
2018-02-21T06:16:13.986Z,80.60
2018-02-21T06:18:41.449Z,81.00
2018-02-21T06:21:08.902Z,81.60
2018-02-21T06:23:36.357Z,81.60
2018-02-21T06:26:03.809Z,82.20
2018-02-21T06:28:31.269Z,82.60
2018-02-21T06:30:58.720Z,82.60
2018-02-21T06:33:26.188Z,82.70
2018-02-21T06:35:53.645Z,83.10
2018-02-21T06:38:21.104Z,82.20
2018-02-21T06:40:48.567Z,82.20
2018-02-21T06:43:16.013Z,83.20
2018-02-21T06:45:44.250Z,82.90
2018-02-21T06:48:11.700Z,82.90
2018-02-21T06:50:39.163Z,82.90
2018-02-21T06:53:06.623Z,82.90
2018-02-21T06:55:34.091Z,82.70
2018-02-21T06:58:01.533Z,83.40
2018-02-21T07:00:29.008Z,83.40
2018-02-21T07:02:56.457Z,83.80
2018-02-21T07:05:23.916Z,83.10
2018-02-21T07:07:51.386Z,83.50
2018-02-21T07:10:18.845Z,83.40
2018-02-21T07:12:46.298Z,83.10
2018-02-21T07:15:13.757Z,83.90
2018-02-21T07:17:41.223Z,83.80
2018-02-21T07:20:08.689Z,83.60
2018-02-21T07:22:36.148Z,83.40
2018-02-21T07:25:03.601Z,83.70
2018-02-21T07:27:31.053Z,83.80
2018-02-21T07:29:59.288Z,83.20
2018-02-21T07:32:26.737Z,83.20
2018-02-21T07:34:54.200Z,83.30
2018-02-21T07:37:21.661Z,83.20
2018-02-21T07:39:49.113Z,83.60
2018-02-21T07:42:16.566Z,83.40
2018-02-21T07:44:44.025Z,83.90
2018-02-21T07:47:11.479Z,83.90
2018-02-21T07:49:38.951Z,83.80
2018-02-21T07:52:06.409Z,83.70
2018-02-21T07:54:33.866Z,84.30
2018-02-21T07:57:01.321Z,84.50
2018-02-21T07:59:29.581Z,84.20
2018-02-21T08:01:57.004Z,84.20
2018-02-21T08:04:24.474Z,84.00
2018-02-21T08:06:51.942Z,84.50
2018-02-21T08:09:19.400Z,84.80
2018-02-21T08:11:46.851Z,84.90
2018-02-21T08:14:14.318Z,84.10
2018-02-21T08:16:41.766Z,83.80
2018-02-21T08:19:09.217Z,84.10
2018-02-21T08:21:36.680Z,83.80
2018-02-21T08:24:04.135Z,84.20
2018-02-21T08:26:31.593Z,84.00
2018-02-21T08:28:59.056Z,83.80
2018-02-21T08:31:26.518Z,83.60
2018-02-21T08:33:53.961Z,83.30
2018-02-21T08:36:22.197Z,83.10
2018-02-21T08:38:49.654Z,83.00
2018-02-21T08:41:17.130Z,83.20
2018-02-21T08:43:44.608Z,83.10
2018-02-21T08:46:12.057Z,83.60
2018-02-21T08:48:39.504Z,82.60
2018-02-21T08:51:06.967Z,83.00
2018-02-21T08:53:34.422Z,83.90
2018-02-21T08:56:01.882Z,83.10
2018-02-21T08:58:29.336Z,83.40
2018-02-21T09:00:56.791Z,83.00
2018-02-21T09:03:24.233Z,83.00
2018-02-21T09:05:52.454Z,83.20
2018-02-21T09:08:19.917Z,83.20
2018-02-21T09:10:47.379Z,83.40
2018-02-21T09:13:14.840Z,82.90
2018-02-21T09:15:42.306Z,82.70
2018-02-21T09:18:09.753Z,82.40
2018-02-21T09:20:37.212Z,82.30
2018-02-21T09:23:04.680Z,81.70
2018-02-21T09:25:32.157Z,81.90
2018-02-21T09:28:00.369Z,82.30
2018-02-21T09:30:27.832Z,82.30
2018-02-21T09:32:55.287Z,82.20
2018-02-21T09:35:22.744Z,82.00
2018-02-21T09:37:50.185Z,81.70
2018-02-21T09:40:17.644Z,81.60
2018-02-21T09:42:45.109Z,81.40
2018-02-21T09:45:12.582Z,81.30
2018-02-21T09:47:40.033Z,81.00
2018-02-21T09:50:07.477Z,81.10
2018-02-21T09:52:34.937Z,80.80
2018-02-21T09:55:02.401Z,80.90
2018-02-21T09:57:29.865Z,81.30
2018-02-21T09:59:57.317Z,80.70
2018-02-21T10:02:24.786Z,80.00
2018-02-21T10:04:52.246Z,80.30
2018-02-21T10:07:19.714Z,80.20
2018-02-21T10:09:47.161Z,80.10
2018-02-21T10:12:14.624Z,80.20
2018-02-21T10:14:42.075Z,80.40
2018-02-21T10:17:10.297Z,79.80
2018-02-21T10:19:37.749Z,79.80
2018-02-21T10:22:05.214Z,79.90
2018-02-21T10:24:32.664Z,79.50
2018-02-21T10:27:00.129Z,79.50
2018-02-21T10:29:27.586Z,78.70
2018-02-21T10:31:55.045Z,79.10
2018-02-21T10:34:22.508Z,79.30
2018-02-21T10:36:49.977Z,79.10
2018-02-21T10:39:17.438Z,79.00
2018-02-21T10:41:44.898Z,79.00
2018-02-21T10:44:12.355Z,78.90
2018-02-21T10:46:39.809Z,78.30
2018-02-21T10:49:07.262Z,78.70
2018-02-21T10:51:35.500Z,78.30
2018-02-21T10:54:02.953Z,78.20
2018-02-21T10:56:30.414Z,78.30
2018-02-21T10:58:57.873Z,78.20
2018-02-21T11:01:26.133Z,78.40
2018-02-21T11:03:53.594Z,77.80
2018-02-21T11:06:21.053Z,78.40
2018-02-21T11:08:48.517Z,76.60
2018-02-21T11:11:16.004Z,77.20
2018-02-21T11:13:43.470Z,76.70
2018-02-21T11:16:10.928Z,76.40
2018-02-21T11:18:38.386Z,76.70
2018-02-21T11:21:05.857Z,76.40
2018-02-21T11:23:33.366Z,76.50
2018-02-21T11:26:00.792Z,77.00
2018-02-21T11:28:28.268Z,76.00
2018-02-21T11:30:55.706Z,75.40
2018-02-21T11:33:23.162Z,75.00
2018-02-21T11:35:50.613Z,74.80
2018-02-21T11:38:18.093Z,74.30
2018-02-21T11:40:45.556Z,74.70
2018-02-21T11:43:13.025Z,74.90
2018-02-21T11:45:40.480Z,73.90
2018-02-21T11:48:08.704Z,74.30
2018-02-21T11:50:36.924Z,74.20
2018-02-21T11:53:04.376Z,74.10
2018-02-21T11:55:31.829Z,73.80
2018-02-21T11:57:59.308Z,73.90
2018-02-21T12:00:26.788Z,73.80
2018-02-21T12:02:54.242Z,74.00
2018-02-21T12:05:21.701Z,73.20
2018-02-21T12:07:49.166Z,72.20
2018-02-21T12:10:16.624Z,72.80
2018-02-21T12:12:44.097Z,72.40
2018-02-21T12:15:11.538Z,72.30
2018-02-21T12:17:39.000Z,72.50
2018-02-21T12:20:06.465Z,71.90
2018-02-21T12:22:33.921Z,73.00
2018-02-21T12:25:01.384Z,73.40
2018-02-21T12:27:28.853Z,73.70
2018-02-21T12:29:56.329Z,72.30
2018-02-21T12:35:25.161Z,71.30
2018-02-21T12:37:52.768Z,70.80
2018-02-21T12:40:25.842Z,70.50
2018-02-21T12:42:54.079Z,71.40
2018-02-21T12:45:22.340Z,71.50
2018-02-21T12:47:49.816Z,71.50
2018-02-21T12:50:17.281Z,71.50
2018-02-21T12:52:44.742Z,71.60
2018-02-21T12:55:12.200Z,70.40
2018-02-21T12:57:39.667Z,69.70
2018-02-21T13:00:07.165Z,70.40
2018-02-21T13:02:34.596Z,69.60
2018-02-21T13:05:02.043Z,69.40
2018-02-21T13:07:29.513Z,69.30
2018-02-21T13:09:56.975Z,69.30
2018-02-21T13:12:24.445Z,68.90
2018-02-21T13:14:51.904Z,67.90
2018-02-21T13:17:19.363Z,67.80
2018-02-21T13:19:46.809Z,68.20
2018-02-21T13:22:14.295Z,68.90
2018-02-21T13:24:41.750Z,68.90
2018-02-21T13:27:09.215Z,68.60
2018-02-21T13:29:36.673Z,68.40
2018-02-21T13:32:04.139Z,68.30
2018-02-21T13:34:32.365Z,67.40
2018-02-21T13:37:00.592Z,67.80
2018-02-21T13:39:28.060Z,67.70
2018-02-21T13:41:55.527Z,67.40
2018-02-21T13:44:22.982Z,65.70
2018-02-21T13:46:50.475Z,66.40
2018-02-21T13:49:17.922Z,66.90
2018-02-21T13:51:45.386Z,66.80
2018-02-21T13:54:12.853Z,65.80
2018-02-21T13:56:40.312Z,65.50
2018-02-21T13:59:07.784Z,66.10
2018-02-21T14:01:35.253Z,66.50
2018-02-21T14:04:02.721Z,64.90
2018-02-21T14:06:30.176Z,64.80
2018-02-21T14:08:57.670Z,64.30
2018-02-21T14:11:25.905Z,64.20
2018-02-21T14:13:53.365Z,64.20
2018-02-21T14:16:20.845Z,64.20
2018-02-21T14:18:48.322Z,63.20
2018-02-21T14:21:16.552Z,62.90
2018-02-21T14:23:44.033Z,62.90
2018-02-21T14:26:11.488Z,62.50
2018-02-21T14:28:39.751Z,61.40
2018-02-21T14:31:07.220Z,61.40
2018-02-21T14:33:34.712Z,60.20
2018-02-21T14:36:02.197Z,61.10
2018-02-21T14:38:30.434Z,61.30
2018-02-21T14:40:57.914Z,61.30
2018-02-21T14:43:25.374Z,61.90
2018-02-21T14:45:53.397Z,62.30
2018-02-21T14:48:20.857Z,63.90
2018-02-21T14:50:48.318Z,62.00
2018-02-21T14:53:15.809Z,62.60
2018-02-21T14:55:43.278Z,62.20
2018-02-21T14:58:10.741Z,62.10
2018-02-21T15:00:38.287Z,61.00
2018-02-21T15:03:05.753Z,60.50
2018-02-21T15:05:33.212Z,61.10
2018-02-21T15:08:00.687Z,61.20
2018-02-21T15:10:28.149Z,62.40
2018-02-21T15:12:55.615Z,60.40
2018-02-21T15:15:23.115Z,60.70
2018-02-21T15:17:51.365Z,61.50
2018-02-21T15:20:19.606Z,61.80
2018-02-21T15:22:47.064Z,61.90
2018-02-21T15:25:15.347Z,60.60
2018-02-21T15:27:42.821Z,60.60
2018-02-21T15:30:10.283Z,60.60
2018-02-21T15:32:37.746Z,60.40
2018-02-21T15:35:05.238Z,61.30
2018-02-21T15:37:32.695Z,60.60
2018-02-21T15:40:00.168Z,60.80
2018-02-21T15:42:27.627Z,61.10
2018-02-21T15:44:55.110Z,60.20
2018-02-21T15:47:22.569Z,61.00
2018-02-21T15:49:50.043Z,59.60
2018-02-21T15:52:17.548Z,59.80
2018-02-21T15:54:45.051Z,59.70
2018-02-21T15:57:12.505Z,59.20
2018-02-21T15:59:39.974Z,59.60
2018-02-21T16:02:07.437Z,60.20
2018-02-21T16:04:34.911Z,60.40
2018-02-21T16:07:02.386Z,60.10
2018-02-21T16:09:29.865Z,59.70
2018-02-21T16:11:58.098Z,59.80
2018-02-21T16:14:25.567Z,59.80
2018-02-21T16:16:53.035Z,59.20
2018-02-21T16:19:20.510Z,59.00
2018-02-21T16:21:47.969Z,58.50
2018-02-21T16:24:15.439Z,58.00
2018-02-21T16:26:42.900Z,58.90
2018-02-21T16:29:10.382Z,58.40
2018-02-21T16:31:38.630Z,58.60
2018-02-21T16:34:06.089Z,58.60
2018-02-21T16:36:33.559Z,60.10
2018-02-21T16:39:01.029Z,60.00
2018-02-21T16:41:28.504Z,59.10
2018-02-21T16:43:55.957Z,59.60
2018-02-21T16:46:23.438Z,59.90
2018-02-21T16:48:51.673Z,59.00
2018-02-21T16:51:19.156Z,58.90
2018-02-21T16:53:52.346Z,61.30
2018-02-21T16:56:19.815Z,60.00
2018-02-21T16:58:47.264Z,61.20
2018-02-21T17:01:14.731Z,60.20
2018-02-21T17:03:42.179Z,61.80
2018-02-21T17:06:09.644Z,61.60
2018-02-21T17:08:37.097Z,60.80
2018-02-21T17:11:04.561Z,62.00
2018-02-21T17:13:32.016Z,62.70
2018-02-21T17:15:59.485Z,62.60
2018-02-21T17:18:26.948Z,63.20
2018-02-21T17:20:54.406Z,62.60
2018-02-21T17:23:21.870Z,61.70
2018-02-21T17:25:49.328Z,62.70
2018-02-21T17:28:16.786Z,63.90
2018-02-21T17:30:44.259Z,63.90
2018-02-21T17:33:11.721Z,64.10
2018-02-21T17:35:39.185Z,63.70
2018-02-21T17:38:06.640Z,64.80
2018-02-21T17:40:34.119Z,64.10
2018-02-21T17:43:01.569Z,65.30
2018-02-21T17:45:29.033Z,64.10
2018-02-21T17:47:56.507Z,65.20
2018-02-21T17:50:23.956Z,64.70
2018-02-21T17:52:51.416Z,66.60
2018-02-21T17:55:18.872Z,66.70
2018-02-21T17:57:46.350Z,67.70
2018-02-21T18:00:13.825Z,67.00
2018-02-21T18:02:41.287Z,68.30
2018-02-21T18:05:08.764Z,68.20
2018-02-21T18:07:36.222Z,68.10
2018-02-21T18:10:03.678Z,68.80
2018-02-21T18:12:31.128Z,68.30
2018-02-21T18:14:58.576Z,68.60
2018-02-21T18:17:26.045Z,68.10
2018-02-21T18:19:53.492Z,67.80
2018-02-21T18:22:20.963Z,69.00
2018-02-21T18:24:48.441Z,66.90
2018-02-21T18:27:15.905Z,69.10
2018-02-21T18:29:43.362Z,68.60
2018-02-21T18:32:10.834Z,68.60
2018-02-21T18:34:38.282Z,68.60
2018-02-21T18:37:05.743Z,69.00
2018-02-21T18:39:33.201Z,69.20
2018-02-21T18:42:00.661Z,69.00
2018-02-21T18:44:28.121Z,69.70
2018-02-21T18:46:56.586Z,69.10
2018-02-21T18:49:24.044Z,69.60
2018-02-21T18:51:51.539Z,70.40
2018-02-21T18:54:19.003Z,69.40
2018-02-21T18:56:46.464Z,69.80
2018-02-21T18:59:14.691Z,70.20
2018-02-21T19:01:42.925Z,70.40
2018-02-21T19:04:10.402Z,70.40
2018-02-21T19:06:37.861Z,70.40
2018-02-21T19:09:05.308Z,70.60
2018-02-21T19:11:32.773Z,70.20
2018-02-21T19:14:00.244Z,70.40
2018-02-21T19:16:27.700Z,70.90
2018-02-21T19:18:55.158Z,70.20
2018-02-21T19:21:22.622Z,70.60
2018-02-21T19:23:50.068Z,71.00
2018-02-21T19:26:17.524Z,70.30
2018-02-21T19:28:44.972Z,70.50
2018-02-21T19:31:12.462Z,71.30
2018-02-21T19:33:39.897Z,71.30
2018-02-21T19:36:07.352Z,71.50
2018-02-21T19:38:35.572Z,71.50
2018-02-21T19:41:03.038Z,71.50
2018-02-21T19:43:30.488Z,71.90
2018-02-21T19:45:57.952Z,71.90
2018-02-21T19:48:25.408Z,72.30
2018-02-21T19:50:52.864Z,72.40
2018-02-21T19:53:20.366Z,72.10
2018-02-21T19:55:47.810Z,71.50
2018-02-21T19:58:15.273Z,70.40
2018-02-21T20:00:42.745Z,70.40
2018-02-21T20:03:10.210Z,71.00
2018-02-21T20:05:37.660Z,70.60
2018-02-21T20:08:05.121Z,70.70
2018-02-21T20:10:32.585Z,70.50
2018-02-21T20:13:00.056Z,70.40
2018-02-21T20:15:27.514Z,70.40
2018-02-21T20:17:54.989Z,70.80
2018-02-21T20:20:22.452Z,71.10
2018-02-21T20:22:49.939Z,71.00
2018-02-21T20:25:17.403Z,70.90
2018-02-21T20:27:45.634Z,71.60
2018-02-21T20:30:13.127Z,71.30
2018-02-21T20:32:40.559Z,71.60
2018-02-21T20:35:08.012Z,71.90
2018-02-21T20:37:35.489Z,71.60
2018-02-21T20:40:02.958Z,71.40
2018-02-21T20:42:30.417Z,71.80
2018-02-21T20:44:57.886Z,72.10
2018-02-21T20:47:25.345Z,72.40
2018-02-21T20:49:52.802Z,72.30
2018-02-21T20:52:20.268Z,72.70
2018-02-21T20:54:47.724Z,72.00
2018-02-21T20:57:15.192Z,72.30
2018-02-21T20:59:43.416Z,72.80
2018-02-21T21:02:11.642Z,72.80
2018-02-21T21:04:39.094Z,72.70
2018-02-21T21:07:06.553Z,72.40
2018-02-21T21:09:34.013Z,72.20
2018-02-21T21:12:01.495Z,72.30
2018-02-21T21:14:28.939Z,71.70
2018-02-21T21:16:56.412Z,72.10
2018-02-21T21:19:23.877Z,72.00
2018-02-21T21:21:51.337Z,72.30
2018-02-21T21:24:18.815Z,72.30
2018-02-21T21:26:47.053Z,72.40
2018-02-21T21:29:14.516Z,72.30
2018-02-21T21:31:41.982Z,72.10
2018-02-21T21:34:09.456Z,72.10
2018-02-21T21:36:36.907Z,72.70
2018-02-21T21:39:04.365Z,72.70
2018-02-21T21:41:31.813Z,72.90
2018-02-21T21:44:00.054Z,71.60
2018-02-21T21:46:27.505Z,71.60
2018-02-21T21:48:54.972Z,71.90
2018-02-21T21:51:22.436Z,71.80
2018-02-21T21:53:49.919Z,72.30
2018-02-21T21:56:17.354Z,71.80
2018-02-21T21:58:44.826Z,72.00
2018-02-21T22:01:12.288Z,72.10
2018-02-21T22:03:39.748Z,71.70
2018-02-21T22:06:07.212Z,71.70
2018-02-21T22:08:34.676Z,71.80
2018-02-21T22:11:02.138Z,71.60
2018-02-21T22:13:29.607Z,72.00
2018-02-21T22:15:57.061Z,71.90
2018-02-21T22:18:24.536Z,71.90
2018-02-21T22:20:52.005Z,72.30
2018-02-21T22:23:19.466Z,71.90
2018-02-21T22:25:46.922Z,72.30
2018-02-21T22:28:14.392Z,72.20
2018-02-21T22:30:41.833Z,72.50
2018-02-21T22:33:09.327Z,72.30
2018-02-21T22:35:37.534Z,72.00
2018-02-21T22:38:04.994Z,72.00
2018-02-21T22:40:33.217Z,72.10
2018-02-21T22:43:00.689Z,72.70
2018-02-21T22:45:28.145Z,71.90
2018-02-21T22:47:55.661Z,72.20
2018-02-21T22:50:23.874Z,72.30
2018-02-21T22:52:51.328Z,72.20
2018-02-21T22:55:18.867Z,72.20
2018-02-21T22:57:46.325Z,72.20
2018-02-21T23:00:13.792Z,72.50
2018-02-21T23:02:41.248Z,72.50
2018-02-21T23:05:08.709Z,72.60
2018-02-21T23:07:36.173Z,72.50
2018-02-21T23:10:03.633Z,72.50
2018-02-21T23:12:31.087Z,72.80
2018-02-21T23:14:58.549Z,73.10
2018-02-21T23:17:26.005Z,72.90
2018-02-21T23:19:53.474Z,72.90
2018-02-21T23:22:20.934Z,73.50
2018-02-21T23:24:48.398Z,73.70
2018-02-21T23:27:16.622Z,73.60
2018-02-21T23:29:44.101Z,73.40
2018-02-21T23:32:11.578Z,74.00
2018-02-21T23:34:39.042Z,73.80
2018-02-21T23:37:06.502Z,74.60
2018-02-21T23:39:33.965Z,73.70
2018-02-21T23:42:01.424Z,73.60
2018-02-21T23:44:28.876Z,74.20
2018-02-21T23:46:56.340Z,74.30
2018-02-21T23:49:23.806Z,74.30
2018-02-21T23:51:51.265Z,74.20
2018-02-21T23:54:18.720Z,74.40
2018-02-21T23:56:46.170Z,74.40
2018-02-21T23:59:13.629Z,74.50
